sensor_id;sensor_type;location;lat;lon;timestamp;temperature;humidity
27226;DHT22;14732;51.074;3.788;2022-10-31T00:01:29;14.90;99.90
27226;DHT22;14732;51.074;3.788;2022-10-31T00:03:54;14.80;99.90
27226;DHT22;14732;51.074;3.788;2022-10-31T00:06:21;14.70;99.90
27226;DHT22;14732;51.074;3.788;2022-10-31T00:08:58;14.60;99.90
27226;DHT22;14732;51.074;3.788;2022-10-31T00:11:25;14.60;99.90
27226;DHT22;14732;51.074;3.788;2022-10-31T00:13:50;14.60;99.90
27226;DHT22;14732;51.074;3.788;2022-10-31T00:16:21;14.70;99.90
27226;DHT22;14732;51.074;3.788;2022-10-31T00:18:54;14.70;99.90
27226;DHT22;14732;51.074;3.788;2022-10-31T00:21:21;14.60;99.90
27226;DHT22;14732;51.074;3.788;2022-10-31T00:23:47;14.50;99.90
27226;DHT22;14732;51.074;3.788;2022-10-31T00:26:14;14.30;99.90
27226;DHT22;14732;51.074;3.788;2022-10-31T00:28:39;14.10;99.90
27226;DHT22;14732;51.074;3.788;2022-10-31T00:31:07;14.00;99.90
27226;DHT22;14732;51.074;3.788;2022-10-31T00:33:34;14.10;99.90
27226;DHT22;14732;51.074;3.788;2022-10-31T00:36:02;14.10;99.90
27226;DHT22;14732;51.074;3.788;2022-10-31T00:38:28;14.10;99.90
27226;DHT22;14732;51.074;3.788;2022-10-31T00:40:53;14.10;99.90
27226;DHT22;14732;51.074;3.788;2022-10-31T00:43:19;14.10;99.90
27226;DHT22;14732;51.074;3.788;2022-10-31T00:45:45;14.00;99.90
27226;DHT22;14732;51.074;3.788;2022-10-31T00:48:11;14.00;99.90
27226;DHT22;14732;51.074;3.788;2022-10-31T00:50:37;14.00;99.90
27226;DHT22;14732;51.074;3.788;2022-10-31T00:53:03;13.90;99.90
27226;DHT22;14732;51.074;3.788;2022-10-31T00:55:29;13.90;99.90
27226;DHT22;14732;51.074;3.788;2022-10-31T00:57:55;13.80;99.90
27226;DHT22;14732;51.074;3.788;2022-10-31T01:00:20;13.80;99.90
27226;DHT22;14732;51.074;3.788;2022-10-31T01:02:46;13.70;99.90
27226;DHT22;14732;51.074;3.788;2022-10-31T01:05:12;13.70;99.90
27226;DHT22;14732;51.074;3.788;2022-10-31T01:07:39;13.70;99.90
27226;DHT22;14732;51.074;3.788;2022-10-31T01:10:06;13.70;99.90
27226;DHT22;14732;51.074;3.788;2022-10-31T01:12:43;13.70;99.90
27226;DHT22;14732;51.074;3.788;2022-10-31T01:15:11;13.60;99.90
27226;DHT22;14732;51.074;3.788;2022-10-31T01:17:37;13.50;99.90
27226;DHT22;14732;51.074;3.788;2022-10-31T01:20:04;13.40;99.90
27226;DHT22;14732;51.074;3.788;2022-10-31T01:22:30;13.40;99.90
27226;DHT22;14732;51.074;3.788;2022-10-31T01:24:56;13.40;99.90
27226;DHT22;14732;51.074;3.788;2022-10-31T01:27:22;13.40;99.90
27226;DHT22;14732;51.074;3.788;2022-10-31T01:29:47;13.40;99.90
27226;DHT22;14732;51.074;3.788;2022-10-31T01:32:13;13.40;99.90
27226;DHT22;14732;51.074;3.788;2022-10-31T01:34:38;13.30;99.90
27226;DHT22;14732;51.074;3.788;2022-10-31T01:37:04;13.30;99.90
27226;DHT22;14732;51.074;3.788;2022-10-31T01:39:29;13.30;99.90
27226;DHT22;14732;51.074;3.788;2022-10-31T01:41:55;13.30;99.90
27226;DHT22;14732;51.074;3.788;2022-10-31T01:46:56;13.10;99.90
27226;DHT22;14732;51.074;3.788;2022-10-31T01:49:48;13.00;99.90
27226;DHT22;14732;51.074;3.788;2022-10-31T01:57:29;13.10;99.90
27226;DHT22;14732;51.074;3.788;2022-10-31T02:00:01;13.10;99.90
27226;DHT22;14732;51.074;3.788;2022-10-31T02:02:27;13.10;99.90
27226;DHT22;14732;51.074;3.788;2022-10-31T02:04:55;12.90;99.90
27226;DHT22;14732;51.074;3.788;2022-10-31T02:07:26;12.80;99.90
27226;DHT22;14732;51.074;3.788;2022-10-31T02:09:53;12.70;99.90
27226;DHT22;14732;51.074;3.788;2022-10-31T02:12:20;12.70;99.90
27226;DHT22;14732;51.074;3.788;2022-10-31T02:14:46;12.80;99.90
27226;DHT22;14732;51.074;3.788;2022-10-31T02:17:12;12.80;99.90
27226;DHT22;14732;51.074;3.788;2022-10-31T02:20:16;12.80;99.90
27226;DHT22;14732;51.074;3.788;2022-10-31T02:25:35;12.70;99.90
27226;DHT22;14732;51.074;3.788;2022-10-31T02:28:34;12.60;99.90
27226;DHT22;14732;51.074;3.788;2022-10-31T02:31:14;12.60;99.90
27226;DHT22;14732;51.074;3.788;2022-10-31T02:33:59;12.60;99.90
27226;DHT22;14732;51.074;3.788;2022-10-31T02:42:04;12.60;99.90
27226;DHT22;14732;51.074;3.788;2022-10-31T02:44:45;12.50;99.90
27226;DHT22;14732;51.074;3.788;2022-10-31T02:47:16;12.60;99.90
27226;DHT22;14732;51.074;3.788;2022-10-31T02:50:00;12.60;99.90
27226;DHT22;14732;51.074;3.788;2022-10-31T02:52:30;12.60;99.90
27226;DHT22;14732;51.074;3.788;2022-10-31T02:54:56;12.60;99.90
27226;DHT22;14732;51.074;3.788;2022-10-31T02:57:33;12.50;99.90
27226;DHT22;14732;51.074;3.788;2022-10-31T03:00:06;12.50;99.90
27226;DHT22;14732;51.074;3.788;2022-10-31T03:05:37;12.40;99.90
27226;DHT22;14732;51.074;3.788;2022-10-31T03:11:05;12.50;99.90
27226;DHT22;14732;51.074;3.788;2022-10-31T03:18:57;12.20;99.90
27226;DHT22;14732;51.074;3.788;2022-10-31T03:21:33;12.20;99.90
27226;DHT22;14732;51.074;3.788;2022-10-31T03:24:01;12.20;99.90
27226;DHT22;14732;51.074;3.788;2022-10-31T03:26:27;12.20;99.90
27226;DHT22;14732;51.074;3.788;2022-10-31T03:28:56;12.10;99.90
27226;DHT22;14732;51.074;3.788;2022-10-31T03:31:26;11.90;99.90
27226;DHT22;14732;51.074;3.788;2022-10-31T03:33:54;12.00;99.90
27226;DHT22;14732;51.074;3.788;2022-10-31T03:36:22;11.90;99.90
27226;DHT22;14732;51.074;3.788;2022-10-31T03:38:48;12.00;99.90
27226;DHT22;14732;51.074;3.788;2022-10-31T03:41:18;12.10;99.90
27226;DHT22;14732;51.074;3.788;2022-10-31T03:43:53;12.20;99.90
27226;DHT22;14732;51.074;3.788;2022-10-31T03:46:19;12.20;99.90
27226;DHT22;14732;51.074;3.788;2022-10-31T03:48:45;12.20;99.90
27226;DHT22;14732;51.074;3.788;2022-10-31T03:51:25;12.20;99.90
27226;DHT22;14732;51.074;3.788;2022-10-31T03:54:30;12.00;99.90
27226;DHT22;14732;51.074;3.788;2022-10-31T03:57:01;11.90;99.90
27226;DHT22;14732;51.074;3.788;2022-10-31T03:59:39;12.00;99.90
27226;DHT22;14732;51.074;3.788;2022-10-31T04:02:12;12.00;99.90
27226;DHT22;14732;51.074;3.788;2022-10-31T04:04:39;11.90;99.90
27226;DHT22;14732;51.074;3.788;2022-10-31T04:07:06;11.90;99.90
27226;DHT22;14732;51.074;3.788;2022-10-31T04:09:35;12.00;99.90
27226;DHT22;14732;51.074;3.788;2022-10-31T04:12:03;12.00;99.90
27226;DHT22;14732;51.074;3.788;2022-10-31T04:14:32;12.10;99.90
27226;DHT22;14732;51.074;3.788;2022-10-31T04:16:59;12.10;99.90
27226;DHT22;14732;51.074;3.788;2022-10-31T04:19:26;12.00;99.90
27226;DHT22;14732;51.074;3.788;2022-10-31T04:21:52;11.90;99.90
27226;DHT22;14732;51.074;3.788;2022-10-31T04:24:17;11.80;99.90
27226;DHT22;14732;51.074;3.788;2022-10-31T04:26:43;11.80;99.90
27226;DHT22;14732;51.074;3.788;2022-10-31T04:29:09;11.90;99.90
27226;DHT22;14732;51.074;3.788;2022-10-31T04:31:34;11.90;99.90
27226;DHT22;14732;51.074;3.788;2022-10-31T04:34:00;11.90;99.90
27226;DHT22;14732;51.074;3.788;2022-10-31T04:36:25;11.90;99.90
27226;DHT22;14732;51.074;3.788;2022-10-31T04:38:51;11.90;99.90
27226;DHT22;14732;51.074;3.788;2022-10-31T04:41:16;11.80;99.90
27226;DHT22;14732;51.074;3.788;2022-10-31T04:43:42;11.80;99.90
27226;DHT22;14732;51.074;3.788;2022-10-31T04:46:08;11.80;99.90
27226;DHT22;14732;51.074;3.788;2022-10-31T04:48:33;11.80;99.90
27226;DHT22;14732;51.074;3.788;2022-10-31T04:51:00;11.80;99.90
27226;DHT22;14732;51.074;3.788;2022-10-31T04:53:26;11.80;99.90
27226;DHT22;14732;51.074;3.788;2022-10-31T04:55:52;11.80;99.90
27226;DHT22;14732;51.074;3.788;2022-10-31T04:58:18;11.80;99.90
27226;DHT22;14732;51.074;3.788;2022-10-31T05:00:43;11.70;99.90
27226;DHT22;14732;51.074;3.788;2022-10-31T05:03:09;11.70;99.90
27226;DHT22;14732;51.074;3.788;2022-10-31T05:05:34;11.60;99.90
27226;DHT22;14732;51.074;3.788;2022-10-31T05:08:00;11.60;99.90
27226;DHT22;14732;51.074;3.788;2022-10-31T05:10:28;11.60;99.90
27226;DHT22;14732;51.074;3.788;2022-10-31T05:12:56;11.60;99.90
27226;DHT22;14732;51.074;3.788;2022-10-31T05:15:23;11.60;99.90
27226;DHT22;14732;51.074;3.788;2022-10-31T05:17:50;11.60;99.90
27226;DHT22;14732;51.074;3.788;2022-10-31T05:20:17;11.60;99.90
27226;DHT22;14732;51.074;3.788;2022-10-31T05:22:44;11.60;99.90
27226;DHT22;14732;51.074;3.788;2022-10-31T05:25:11;11.60;99.90
27226;DHT22;14732;51.074;3.788;2022-10-31T05:27:44;11.60;99.90
27226;DHT22;14732;51.074;3.788;2022-10-31T05:30:12;11.60;99.90
27226;DHT22;14732;51.074;3.788;2022-10-31T05:32:42;11.50;99.90
27226;DHT22;14732;51.074;3.788;2022-10-31T05:35:11;11.50;99.90
27226;DHT22;14732;51.074;3.788;2022-10-31T05:37:37;11.40;99.90
27226;DHT22;14732;51.074;3.788;2022-10-31T05:40:08;11.40;99.90
27226;DHT22;14732;51.074;3.788;2022-10-31T05:42:35;11.40;99.90
27226;DHT22;14732;51.074;3.788;2022-10-31T05:45:01;11.30;99.90
27226;DHT22;14732;51.074;3.788;2022-10-31T05:47:26;11.30;99.90
27226;DHT22;14732;51.074;3.788;2022-10-31T05:49:52;11.40;99.90
27226;DHT22;14732;51.074;3.788;2022-10-31T05:52:18;11.40;99.90
27226;DHT22;14732;51.074;3.788;2022-10-31T05:54:44;11.50;99.90
27226;DHT22;14732;51.074;3.788;2022-10-31T05:57:10;11.40;99.90
27226;DHT22;14732;51.074;3.788;2022-10-31T05:59:35;11.40;99.90
27226;DHT22;14732;51.074;3.788;2022-10-31T06:02:01;11.30;99.90
27226;DHT22;14732;51.074;3.788;2022-10-31T06:04:26;11.30;99.90
27226;DHT22;14732;51.074;3.788;2022-10-31T06:06:52;11.30;99.90
27226;DHT22;14732;51.074;3.788;2022-10-31T06:09:18;11.30;99.90
27226;DHT22;14732;51.074;3.788;2022-10-31T06:11:44;11.40;99.90
27226;DHT22;14732;51.074;3.788;2022-10-31T06:14:10;11.30;99.90
27226;DHT22;14732;51.074;3.788;2022-10-31T06:16:35;11.30;99.90
27226;DHT22;14732;51.074;3.788;2022-10-31T06:19:01;11.10;99.90
27226;DHT22;14732;51.074;3.788;2022-10-31T06:21:27;11.00;99.90
27226;DHT22;14732;51.074;3.788;2022-10-31T06:23:52;11.00;99.90
27226;DHT22;14732;51.074;3.788;2022-10-31T06:26:18;11.00;99.90
27226;DHT22;14732;51.074;3.788;2022-10-31T06:28:43;11.10;99.90
27226;DHT22;14732;51.074;3.788;2022-10-31T06:31:09;11.20;99.90
27226;DHT22;14732;51.074;3.788;2022-10-31T06:33:35;11.40;99.90
27226;DHT22;14732;51.074;3.788;2022-10-31T06:36:00;11.50;99.90
27226;DHT22;14732;51.074;3.788;2022-10-31T06:38:27;11.60;99.90
27226;DHT22;14732;51.074;3.788;2022-10-31T06:40:53;11.60;99.90
27226;DHT22;14732;51.074;3.788;2022-10-31T06:43:19;11.70;99.90
27226;DHT22;14732;51.074;3.788;2022-10-31T06:45:45;11.80;99.90
27226;DHT22;14732;51.074;3.788;2022-10-31T06:48:10;11.90;99.90
27226;DHT22;14732;51.074;3.788;2022-10-31T06:50:36;12.00;99.90
27226;DHT22;14732;51.074;3.788;2022-10-31T06:53:02;12.00;99.90
27226;DHT22;14732;51.074;3.788;2022-10-31T06:55:27;12.00;99.90
27226;DHT22;14732;51.074;3.788;2022-10-31T06:57:58;12.00;99.90
27226;DHT22;14732;51.074;3.788;2022-10-31T07:00:25;11.90;99.90
27226;DHT22;14732;51.074;3.788;2022-10-31T07:02:55;11.90;99.90
27226;DHT22;14732;51.074;3.788;2022-10-31T07:05:21;12.00;99.90
27226;DHT22;14732;51.074;3.788;2022-10-31T07:07:46;12.10;99.90
27226;DHT22;14732;51.074;3.788;2022-10-31T07:10:12;12.30;99.90
27226;DHT22;14732;51.074;3.788;2022-10-31T07:12:38;12.40;99.90
27226;DHT22;14732;51.074;3.788;2022-10-31T07:15:04;12.50;99.90
27226;DHT22;14732;51.074;3.788;2022-10-31T07:17:30;12.40;99.90
27226;DHT22;14732;51.074;3.788;2022-10-31T07:19:56;12.50;99.90
27226;DHT22;14732;51.074;3.788;2022-10-31T07:22:21;12.60;99.90
27226;DHT22;14732;51.074;3.788;2022-10-31T07:24:47;12.50;99.90
27226;DHT22;14732;51.074;3.788;2022-10-31T07:27:12;12.60;99.90
27226;DHT22;14732;51.074;3.788;2022-10-31T07:29:38;12.60;99.90
27226;DHT22;14732;51.074;3.788;2022-10-31T07:32:04;12.70;99.90
27226;DHT22;14732;51.074;3.788;2022-10-31T07:34:29;12.80;99.90
27226;DHT22;14732;51.074;3.788;2022-10-31T07:36:55;12.80;99.90
27226;DHT22;14732;51.074;3.788;2022-10-31T07:39:21;12.80;99.90
27226;DHT22;14732;51.074;3.788;2022-10-31T07:41:46;12.80;99.90
27226;DHT22;14732;51.074;3.788;2022-10-31T07:44:12;12.90;99.90
27226;DHT22;14732;51.074;3.788;2022-10-31T07:46:37;12.90;99.90
27226;DHT22;14732;51.074;3.788;2022-10-31T07:49:03;12.90;99.90
27226;DHT22;14732;51.074;3.788;2022-10-31T07:51:29;13.00;99.90
27226;DHT22;14732;51.074;3.788;2022-10-31T07:53:55;13.10;99.90
27226;DHT22;14732;51.074;3.788;2022-10-31T07:56:20;13.10;99.90
27226;DHT22;14732;51.074;3.788;2022-10-31T07:58:46;13.10;99.90
27226;DHT22;14732;51.074;3.788;2022-10-31T08:01:11;13.00;99.90
27226;DHT22;14732;51.074;3.788;2022-10-31T08:03:37;12.90;99.90
27226;DHT22;14732;51.074;3.788;2022-10-31T08:06:03;12.90;99.90
27226;DHT22;14732;51.074;3.788;2022-10-31T08:08:28;13.10;99.90
27226;DHT22;14732;51.074;3.788;2022-10-31T08:10:54;13.20;99.90
27226;DHT22;14732;51.074;3.788;2022-10-31T08:13:21;13.40;99.90
27226;DHT22;14732;51.074;3.788;2022-10-31T08:15:47;13.40;99.90
27226;DHT22;14732;51.074;3.788;2022-10-31T08:18:15;13.50;99.90
27226;DHT22;14732;51.074;3.788;2022-10-31T08:20:42;13.50;99.90
27226;DHT22;14732;51.074;3.788;2022-10-31T08:23:10;13.50;99.90
27226;DHT22;14732;51.074;3.788;2022-10-31T08:25:36;13.60;99.90
27226;DHT22;14732;51.074;3.788;2022-10-31T08:28:02;13.60;99.90
27226;DHT22;14732;51.074;3.788;2022-10-31T08:30:32;13.60;99.90
27226;DHT22;14732;51.074;3.788;2022-10-31T08:33:04;13.70;99.90
27226;DHT22;14732;51.074;3.788;2022-10-31T08:35:31;13.80;99.90
27226;DHT22;14732;51.074;3.788;2022-10-31T08:37:57;13.90;99.90
27226;DHT22;14732;51.074;3.788;2022-10-31T08:40:24;14.00;99.90
27226;DHT22;14732;51.074;3.788;2022-10-31T08:43:04;14.20;99.90
27226;DHT22;14732;51.074;3.788;2022-10-31T08:45:31;14.30;99.90
27226;DHT22;14732;51.074;3.788;2022-10-31T08:47:59;14.20;99.90
27226;DHT22;14732;51.074;3.788;2022-10-31T08:50:25;14.10;99.90
27226;DHT22;14732;51.074;3.788;2022-10-31T08:52:51;14.20;99.90
27226;DHT22;14732;51.074;3.788;2022-10-31T08:55:17;14.40;99.90
27226;DHT22;14732;51.074;3.788;2022-10-31T08:57:42;14.40;99.90
27226;DHT22;14732;51.074;3.788;2022-10-31T09:00:08;14.40;99.90
27226;DHT22;14732;51.074;3.788;2022-10-31T09:02:34;14.50;99.90
27226;DHT22;14732;51.074;3.788;2022-10-31T09:04:59;14.60;99.90
27226;DHT22;14732;51.074;3.788;2022-10-31T09:07:25;14.70;99.90
27226;DHT22;14732;51.074;3.788;2022-10-31T09:09:51;14.90;99.90
27226;DHT22;14732;51.074;3.788;2022-10-31T09:12:18;14.90;99.90
27226;DHT22;14732;51.074;3.788;2022-10-31T09:14:43;14.90;99.90
27226;DHT22;14732;51.074;3.788;2022-10-31T09:17:09;14.90;99.90
27226;DHT22;14732;51.074;3.788;2022-10-31T09:19:34;15.00;99.90
27226;DHT22;14732;51.074;3.788;2022-10-31T09:22:01;15.10;99.90
27226;DHT22;14732;51.074;3.788;2022-10-31T09:24:26;15.00;99.90
27226;DHT22;14732;51.074;3.788;2022-10-31T09:26:52;15.20;99.90
27226;DHT22;14732;51.074;3.788;2022-10-31T09:29:17;15.10;99.90
27226;DHT22;14732;51.074;3.788;2022-10-31T09:31:43;14.90;99.90
27226;DHT22;14732;51.074;3.788;2022-10-31T09:34:09;14.70;99.90
27226;DHT22;14732;51.074;3.788;2022-10-31T09:36:34;14.70;99.90
27226;DHT22;14732;51.074;3.788;2022-10-31T09:39:00;14.40;99.90
27226;DHT22;14732;51.074;3.788;2022-10-31T09:44:18;14.80;99.90
27226;DHT22;14732;51.074;3.788;2022-10-31T09:52:20;15.20;99.90
27226;DHT22;14732;51.074;3.788;2022-10-31T09:54:55;15.10;99.90
27226;DHT22;14732;51.074;3.788;2022-10-31T09:57:28;15.20;99.90
27226;DHT22;14732;51.074;3.788;2022-10-31T09:59:55;15.40;99.90
27226;DHT22;14732;51.074;3.788;2022-10-31T10:03:05;15.40;99.90
27226;DHT22;14732;51.074;3.788;2022-10-31T10:05:34;15.50;99.90
27226;DHT22;14732;51.074;3.788;2022-10-31T10:08:18;15.60;99.90
27226;DHT22;14732;51.074;3.788;2022-10-31T10:26:56;15.40;99.90
27226;DHT22;14732;51.074;3.788;2022-10-31T10:29:36;15.50;99.90
27226;DHT22;14732;51.074;3.788;2022-10-31T10:32:22;15.60;99.90
27226;DHT22;14732;51.074;3.788;2022-10-31T10:34:55;15.50;99.90
27226;DHT22;14732;51.074;3.788;2022-10-31T10:37:24;15.60;99.90
27226;DHT22;14732;51.074;3.788;2022-10-31T10:39:55;15.90;99.90
27226;DHT22;14732;51.074;3.788;2022-10-31T10:42:23;16.10;99.90
27226;DHT22;14732;51.074;3.788;2022-10-31T10:45:17;15.80;99.90
27226;DHT22;14732;51.074;3.788;2022-10-31T10:48:16;15.80;99.90
27226;DHT22;14732;51.074;3.788;2022-10-31T10:50:47;16.10;99.90
27226;DHT22;14732;51.074;3.788;2022-10-31T10:56:33;16.10;99.90
27226;DHT22;14732;51.074;3.788;2022-10-31T10:59:03;16.50;99.90
27226;DHT22;14732;51.074;3.788;2022-10-31T11:01:29;16.60;99.90
27226;DHT22;14732;51.074;3.788;2022-10-31T11:03:56;16.50;99.90
27226;DHT22;14732;51.074;3.788;2022-10-31T11:06:23;16.60;99.90
27226;DHT22;14732;51.074;3.788;2022-10-31T11:08:51;16.50;99.90
27226;DHT22;14732;51.074;3.788;2022-10-31T11:13:45;16.90;99.90
27226;DHT22;14732;51.074;3.788;2022-10-31T11:16:14;17.00;99.90
27226;DHT22;14732;51.074;3.788;2022-10-31T11:18:52;17.10;99.90
27226;DHT22;14732;51.074;3.788;2022-10-31T11:21:24;17.20;99.90
27226;DHT22;14732;51.074;3.788;2022-10-31T11:24:23;16.90;99.90
27226;DHT22;14732;51.074;3.788;2022-10-31T11:26:49;17.00;99.90
27226;DHT22;14732;51.074;3.788;2022-10-31T11:29:23;17.10;99.90
27226;DHT22;14732;51.074;3.788;2022-10-31T11:31:54;17.20;99.90
27226;DHT22;14732;51.074;3.788;2022-10-31T11:34:30;17.50;99.90
27226;DHT22;14732;51.074;3.788;2022-10-31T11:37:13;17.30;99.90
27226;DHT22;14732;51.074;3.788;2022-10-31T11:39:46;17.00;99.90
27226;DHT22;14732;51.074;3.788;2022-10-31T11:42:23;17.00;99.90
27226;DHT22;14732;51.074;3.788;2022-10-31T11:44:51;16.90;99.90
27226;DHT22;14732;51.074;3.788;2022-10-31T11:47:20;17.10;99.90
27226;DHT22;14732;51.074;3.788;2022-10-31T11:49:47;17.50;99.90
27226;DHT22;14732;51.074;3.788;2022-10-31T11:52:20;17.40;99.90
27226;DHT22;14732;51.074;3.788;2022-10-31T11:54:54;17.30;99.90
27226;DHT22;14732;51.074;3.788;2022-10-31T12:02:50;17.40;99.90
27226;DHT22;14732;51.074;3.788;2022-10-31T12:05:20;17.50;99.90
27226;DHT22;14732;51.074;3.788;2022-10-31T12:07:47;17.40;99.90
27226;DHT22;14732;51.074;3.788;2022-10-31T12:10:14;17.50;99.90
27226;DHT22;14732;51.074;3.788;2022-10-31T12:26:16;17.70;99.90
27226;DHT22;14732;51.074;3.788;2022-10-31T12:32:12;17.20;99.90
27226;DHT22;14732;51.074;3.788;2022-10-31T12:37:49;17.30;99.90
27226;DHT22;14732;51.074;3.788;2022-10-31T12:40:33;17.20;99.90
27226;DHT22;14732;51.074;3.788;2022-10-31T12:45:56;17.30;99.90
27226;DHT22;14732;51.074;3.788;2022-10-31T12:57:17;17.70;99.90
27226;DHT22;14732;51.074;3.788;2022-10-31T13:00:12;17.70;99.90
27226;DHT22;14732;51.074;3.788;2022-10-31T13:02:59;17.40;99.90
27226;DHT22;14732;51.074;3.788;2022-10-31T13:07:59;17.50;99.90
27226;DHT22;14732;51.074;3.788;2022-10-31T13:10:46;17.70;99.90
27226;DHT22;14732;51.074;3.788;2022-10-31T13:13:21;17.90;99.90
27226;DHT22;14732;51.074;3.788;2022-10-31T13:15:56;17.90;99.90
27226;DHT22;14732;51.074;3.788;2022-10-31T13:18:42;18.00;99.90
27226;DHT22;14732;51.074;3.788;2022-10-31T13:21:22;18.30;99.90
27226;DHT22;14732;51.074;3.788;2022-10-31T13:23:50;18.00;99.90
27226;DHT22;14732;51.074;3.788;2022-10-31T13:26:43;18.00;99.90
27226;DHT22;14732;51.074;3.788;2022-10-31T13:29:21;17.80;99.90
27226;DHT22;14732;51.074;3.788;2022-10-31T13:31:48;17.80;99.90
27226;DHT22;14732;51.074;3.788;2022-10-31T13:34:32;18.00;99.90
27226;DHT22;14732;51.074;3.788;2022-10-31T13:40:11;17.80;99.90
27226;DHT22;14732;51.074;3.788;2022-10-31T13:43:06;18.00;99.90
27226;DHT22;14732;51.074;3.788;2022-10-31T13:45:35;18.20;99.90
27226;DHT22;14732;51.074;3.788;2022-10-31T13:50:40;18.20;99.90
27226;DHT22;14732;51.074;3.788;2022-10-31T13:53:19;18.30;99.90
27226;DHT22;14732;51.074;3.788;2022-10-31T13:56:05;18.40;99.90
27226;DHT22;14732;51.074;3.788;2022-10-31T13:58:36;18.50;99.90
27226;DHT22;14732;51.074;3.788;2022-10-31T14:01:19;18.50;99.90
27226;DHT22;14732;51.074;3.788;2022-10-31T14:03:57;18.60;99.90
27226;DHT22;14732;51.074;3.788;2022-10-31T14:06:38;18.40;99.90
27226;DHT22;14732;51.074;3.788;2022-10-31T14:09:05;18.40;99.90
27226;DHT22;14732;51.074;3.788;2022-10-31T14:11:30;18.20;99.90
27226;DHT22;14732;51.074;3.788;2022-10-31T14:13:58;18.20;99.90
27226;DHT22;14732;51.074;3.788;2022-10-31T14:16:30;17.70;99.90
27226;DHT22;14732;51.074;3.788;2022-10-31T14:19:06;17.70;99.90
27226;DHT22;14732;51.074;3.788;2022-10-31T14:21:41;17.50;99.90
27226;DHT22;14732;51.074;3.788;2022-10-31T14:24:37;17.60;99.90
27226;DHT22;14732;51.074;3.788;2022-10-31T14:29:53;17.60;99.90
27226;DHT22;14732;51.074;3.788;2022-10-31T14:32:23;17.70;99.90
27226;DHT22;14732;51.074;3.788;2022-10-31T14:50:37;17.70;99.90
27226;DHT22;14732;51.074;3.788;2022-10-31T14:53:13;17.70;99.90
27226;DHT22;14732;51.074;3.788;2022-10-31T14:55:45;17.80;99.90
27226;DHT22;14732;51.074;3.788;2022-10-31T14:58:25;18.00;99.90
27226;DHT22;14732;51.074;3.788;2022-10-31T15:00:55;18.00;99.90
27226;DHT22;14732;51.074;3.788;2022-10-31T15:03:33;18.10;99.90
27226;DHT22;14732;51.074;3.788;2022-10-31T15:06:09;18.00;99.90
27226;DHT22;14732;51.074;3.788;2022-10-31T15:08:47;18.00;99.90
27226;DHT22;14732;51.074;3.788;2022-10-31T15:11:15;18.00;99.90
27226;DHT22;14732;51.074;3.788;2022-10-31T15:13:46;17.80;99.90
27226;DHT22;14732;51.074;3.788;2022-10-31T15:16:14;17.70;99.90
27226;DHT22;14732;51.074;3.788;2022-10-31T15:18:52;17.70;99.90
27226;DHT22;14732;51.074;3.788;2022-10-31T15:21:21;17.80;99.90
27226;DHT22;14732;51.074;3.788;2022-10-31T15:23:47;17.70;99.90
27226;DHT22;14732;51.074;3.788;2022-10-31T15:26:17;17.80;99.90
27226;DHT22;14732;51.074;3.788;2022-10-31T15:28:44;17.80;99.90
27226;DHT22;14732;51.074;3.788;2022-10-31T15:31:16;17.80;99.90
27226;DHT22;14732;51.074;3.788;2022-10-31T15:33:44;17.70;99.90
27226;DHT22;14732;51.074;3.788;2022-10-31T15:36:23;17.70;99.90
27226;DHT22;14732;51.074;3.788;2022-10-31T15:38:49;17.70;99.90
27226;DHT22;14732;51.074;3.788;2022-10-31T15:41:39;17.60;99.90
27226;DHT22;14732;51.074;3.788;2022-10-31T15:44:30;17.60;99.90
27226;DHT22;14732;51.074;3.788;2022-10-31T15:47:05;17.50;99.90
27226;DHT22;14732;51.074;3.788;2022-10-31T15:49:40;17.50;99.90
27226;DHT22;14732;51.074;3.788;2022-10-31T15:52:28;17.40;99.90
27226;DHT22;14732;51.074;3.788;2022-10-31T15:55:05;17.30;99.90
27226;DHT22;14732;51.074;3.788;2022-10-31T15:57:32;17.40;99.90
27226;DHT22;14732;51.074;3.788;2022-10-31T15:59:58;17.30;99.90
27226;DHT22;14732;51.074;3.788;2022-10-31T16:02:26;17.20;99.90
27226;DHT22;14732;51.074;3.788;2022-10-31T16:04:55;17.10;99.90
27226;DHT22;14732;51.074;3.788;2022-10-31T16:07:21;17.00;99.90
27226;DHT22;14732;51.074;3.788;2022-10-31T16:09:53;17.00;99.90
27226;DHT22;14732;51.074;3.788;2022-10-31T16:12:20;16.80;99.90
27226;DHT22;14732;51.074;3.788;2022-10-31T16:14:46;16.80;99.90
27226;DHT22;14732;51.074;3.788;2022-10-31T16:17:18;16.90;99.90
27226;DHT22;14732;51.074;3.788;2022-10-31T16:19:58;16.90;99.90
27226;DHT22;14732;51.074;3.788;2022-10-31T16:22:30;17.00;99.90
27226;DHT22;14732;51.074;3.788;2022-10-31T16:25:09;17.20;99.90
27226;DHT22;14732;51.074;3.788;2022-10-31T16:27:36;17.10;99.90
27226;DHT22;14732;51.074;3.788;2022-10-31T16:32:56;16.90;99.90
27226;DHT22;14732;51.074;3.788;2022-10-31T16:35:26;16.80;99.90
27226;DHT22;14732;51.074;3.788;2022-10-31T16:37:53;16.60;99.90
27226;DHT22;14732;51.074;3.788;2022-10-31T16:40:19;16.70;99.90
27226;DHT22;14732;51.074;3.788;2022-10-31T16:42:46;16.70;99.90
27226;DHT22;14732;51.074;3.788;2022-10-31T16:45:25;16.60;99.90
27226;DHT22;14732;51.074;3.788;2022-10-31T16:47:51;16.50;99.90
27226;DHT22;14732;51.074;3.788;2022-10-31T16:50:22;16.60;99.90
27226;DHT22;14732;51.074;3.788;2022-10-31T16:52:48;16.60;99.90
27226;DHT22;14732;51.074;3.788;2022-10-31T16:55:15;16.50;99.90
27226;DHT22;14732;51.074;3.788;2022-10-31T16:57:50;16.50;99.90
27226;DHT22;14732;51.074;3.788;2022-10-31T17:00:20;16.50;99.90
27226;DHT22;14732;51.074;3.788;2022-10-31T17:02:47;16.40;99.90
27226;DHT22;14732;51.074;3.788;2022-10-31T17:05:15;16.40;99.90
27226;DHT22;14732;51.074;3.788;2022-10-31T17:07:42;16.30;99.90
27226;DHT22;14732;51.074;3.788;2022-10-31T17:10:09;16.20;99.90
27226;DHT22;14732;51.074;3.788;2022-10-31T17:12:36;16.20;99.90
27226;DHT22;14732;51.074;3.788;2022-10-31T17:15:02;16.10;99.90
27226;DHT22;14732;51.074;3.788;2022-10-31T17:17:27;16.10;99.90
27226;DHT22;14732;51.074;3.788;2022-10-31T17:19:53;16.10;99.90
27226;DHT22;14732;51.074;3.788;2022-10-31T17:22:19;16.10;99.90
27226;DHT22;14732;51.074;3.788;2022-10-31T17:24:44;16.10;99.90
27226;DHT22;14732;51.074;3.788;2022-10-31T17:27:10;16.10;99.90
27226;DHT22;14732;51.074;3.788;2022-10-31T17:29:35;16.20;99.90
27226;DHT22;14732;51.074;3.788;2022-10-31T17:32:01;16.10;99.90
27226;DHT22;14732;51.074;3.788;2022-10-31T17:34:30;16.00;99.90
27226;DHT22;14732;51.074;3.788;2022-10-31T17:36:55;16.00;99.90
27226;DHT22;14732;51.074;3.788;2022-10-31T17:39:21;16.00;99.90
27226;DHT22;14732;51.074;3.788;2022-10-31T17:41:51;16.00;99.90
27226;DHT22;14732;51.074;3.788;2022-10-31T17:44:17;15.80;99.90
27226;DHT22;14732;51.074;3.788;2022-10-31T17:46:43;15.80;99.90
27226;DHT22;14732;51.074;3.788;2022-10-31T17:49:10;15.80;99.90
27226;DHT22;14732;51.074;3.788;2022-10-31T17:51:36;15.80;99.90